M/T Vemaoil Xi — 9HWD7 — position and weather

sailwx.info

Track history (hours):
 
Tides and Currents Weather Stations Pressure Air Temp Water Temp Dewpoint Dewpoint Depression Visibility Wind Speed Wind Dir Waves Ship Positions

M/T Vemaoil Xi

Last reported at 2017-Jun-25 03:24 UTC. Time now 2017-Jun-25 03:44 UTC.
Position N 35°49' E 014°35'.

Length 105 m; draft 4.8 m.

Type: Tanker. MMSI: 215631000.

Date/timePositionNaut miles runAvg speedWind from/ knotsBaromVisibWave heightAir tempDewpointWater temp
2017-Jun-25 03:24N 35°49' E 014°35'0 0.0
2017-Jun-25 03:00N 35°49' E 014°35'0 0.0
2017-Jun-25 02:30N 35°49' E 014°35'0 0.0
2017-Jun-25 02:00N 35°49' E 014°35'0 0.0
2017-Jun-25 01:30N 35°49' E 014°35'0 0.0
2017-Jun-25 01:00N 35°49' E 014°35'0 0.0
2017-Jun-25 00:30N 35°49' E 014°35'0 0.0
2017-Jun-25 00:00N 35°49' E 014°35'0 0.0
2017-Jun-24 23:30N 35°49' E 014°35'0 0.0
2017-Jun-24 23:00N 35°49' E 014°35'0 0.0
2017-Jun-24 22:30N 35°49' E 014°35'0 0.0
2017-Jun-24 22:00N 35°49' E 014°35'0 0.0
2017-Jun-24 21:30N 35°49' E 014°35'0 0.0
2017-Jun-24 21:00N 35°49' E 014°35'0 0.0
2017-Jun-24 20:30N 35°49' E 014°35'0 0.0
2017-Jun-24 20:00N 35°49' E 014°35'0 0.0
2017-Jun-24 19:30N 35°49' E 014°35'0 0.0
2017-Jun-24 18:51N 35°49' E 014°35'0 0.0
2017-Jun-24 18:30N 35°49' E 014°35'0 0.0
2017-Jun-24 18:00N 35°49' E 014°35'0 0.0
2017-Jun-24 17:27N 35°49' E 014°35'0 0.0
2017-Jun-24 17:00N 35°49' E 014°35'0 0.0
2017-Jun-24 16:30N 35°49' E 014°35'0 0.0
2017-Jun-24 16:00N 35°49' E 014°35'0 0.0
2017-Jun-24 15:27N 35°49' E 014°35'0 0.0
2017-Jun-24 14:48N 35°49' E 014°35'0 0.0
2017-Jun-24 14:00N 35°49' E 014°35'0 0.0
2017-Jun-24 13:30N 35°49' E 014°35'0 0.0
2017-Jun-24 12:54N 35°49' E 014°35'0 0.0
2017-Jun-24 12:24N 35°49' E 014°35'0 0.0
2017-Jun-24 12:00N 35°49' E 014°35'0 0.0
2017-Jun-24 11:30N 35°49' E 014°35'0 0.1
2017-Jun-24 11:00N 35°49' E 014°35'0 0.0
2017-Jun-24 10:21N 35°49' E 014°35'0 0.0
2017-Jun-24 10:00N 35°49' E 014°35'0 0.0
2017-Jun-24 09:30N 35°49' E 014°35'0 0.0
2017-Jun-24 09:00N 35°49' E 014°35'0 0.0
2017-Jun-24 08:30N 35°49' E 014°35'3 5.5
2017-Jun-24 08:01N 35°49' E 014°38'4 7.9
2017-Jun-24 07:30N 35°51' E 014°43'4 7.4
2017-Jun-24 07:01N 35°53' E 014°46'0 0.1
2017-Jun-24 06:29N 35°53' E 014°46'0 0.0
2017-Jun-24 05:59N 35°53' E 014°46'0 0.0
2017-Jun-24 05:29N 35°53' E 014°46'0 0.0
2017-Jun-24 04:59N 35°53' E 014°46'0 0.0
2017-Jun-24 04:26N 35°53' E 014°46'0 0.0
2017-Jun-24 03:59N 35°53' E 014°46'0 0.0
2017-Jun-24 03:29N 35°53' E 014°46'0 0.0
2017-Jun-24 02:59N 35°53' E 014°46'0 0.0
2017-Jun-24 02:29N 35°53' E 014°46'0 0.5
2017-Jun-24 02:00N 35°53' E 014°46'3 5.2
2017-Jun-24 01:30N 35°51' E 014°44'4 7.1
2017-Jun-24 01:00N 35°50' E 014°40'3 5.8
2017-Jun-24 00:25N 35°51' E 014°36'0 0.1
2017-Jun-23 23:58N 35°51' E 014°36'0 0.0
2017-Jun-23 23:28N 35°51' E 014°36'0 0.0
2017-Jun-23 22:55N 35°51' E 014°36'0 0.0
2017-Jun-23 22:28N 35°51' E 014°36'0 0.0
2017-Jun-23 21:58N 35°51' E 014°36'0 0.0
2017-Jun-23 21:28N 35°51' E 014°36'0 0.0
2017-Jun-23 20:58N 35°51' E 014°36'0 0.1
2017-Jun-23 20:28N 35°51' E 014°36'0 0.0
2017-Jun-23 19:13N 35°51' E 014°36'0 0.0
2017-Jun-23 18:55N 35°51' E 014°36'0 0.0
2017-Jun-23 18:28N 35°51' E 014°36'0 0.1
2017-Jun-23 17:58N 35°51' E 014°36'0 0.1
2017-Jun-23 17:28N 35°51' E 014°36'0 0.1
2017-Jun-23 16:58N 35°51' E 014°36'0 0.0
2017-Jun-23 16:28N 35°51' E 014°36'0 0.0
2017-Jun-23 15:58N 35°51' E 014°36'0 0.0
2017-Jun-23 15:28N 35°51' E 014°36'0 0.0
2017-Jun-23 14:58N 35°51' E 014°36'0 0.0
2017-Jun-23 14:28N 35°51' E 014°36'0 0.0
2017-Jun-23 13:58N 35°51' E 014°36'0 0.0
2017-Jun-23 13:25N 35°51' E 014°36'0 0.1
2017-Jun-23 12:58N 35°51' E 014°36'0 0.0
2017-Jun-23 12:28N 35°51' E 014°36'0 0.1
2017-Jun-23 11:58N 35°51' E 014°36'0 0.0
2017-Jun-23 11:28N 35°51' E 014°36'0 0.0
2017-Jun-23 10:58N 35°51' E 014°36'0 0.5
2017-Jun-23 10:25N 35°50' E 014°36'0 0.0
2017-Jun-23 09:58N 35°50' E 014°36'0 0.0
2017-Jun-23 09:28N 35°50' E 014°36'0 0.0
2017-Jun-23 08:55N 35°50' E 014°36'0 0.0
2017-Jun-23 08:28N 35°50' E 014°36'0 0.0
2017-Jun-23 07:58N 35°50' E 014°36'0 0.0
2017-Jun-23 07:25N 35°50' E 014°36'0 0.0
2017-Jun-23 06:55N 35°50' E 014°36'0 0.0
2017-Jun-23 06:25N 35°50' E 014°36'0 0.0
2017-Jun-23 05:58N 35°50' E 014°36'0 0.1
2017-Jun-23 05:28N 35°50' E 014°36'0 0.0
2017-Jun-23 04:58N 35°50' E 014°36'0 0.1
2017-Jun-23 04:28N 35°50' E 014°36'0 0.1
2017-Jun-23 03:52N 35°50' E 014°36'0 0.0
2017-Jun-23 03:28N 35°50' E 014°36'0 0.0
2017-Jun-23 02:58N 35°50' E 014°36'0 0.0
2017-Jun-23 02:28N 35°50' E 014°36'0 0.0
2017-Jun-23 01:55N 35°50' E 014°36'0 0.0
2017-Jun-23 01:28N 35°50' E 014°36'0 0.0
2017-Jun-23 00:52N 35°50' E 014°36'0 0.1
2017-Jun-23 00:25N 35°50' E 014°36'3 6.5
2017-Jun-23 00:00N 35°50' E 014°39'4 7.5
2017-Jun-22 23:30N 35°51' E 014°44'4 7.4
2017-Jun-22 23:00N 35°53' E 014°47'1 2.8
2017-Jun-22 22:29N 35°54' E 014°48'0 0.1
2017-Jun-22 21:59N 35°54' E 014°48'0 0.1
2017-Jun-22 21:29N 35°54' E 014°48'0 0.1
2017-Jun-22 20:59N 35°54' E 014°48'0 0.0
2017-Jun-22 20:29N 35°54' E 014°48'0 0.0
2017-Jun-22 19:59N 35°54' E 014°48'0 0.0
2017-Jun-22 19:29N 35°54' E 014°48'0 0.0
2017-Jun-22 18:59N 35°54' E 014°48'0 0.0
2017-Jun-22 18:29N 35°54' E 014°48'0 0.0
2017-Jun-22 17:59N 35°54' E 014°48'0 0.0
2017-Jun-22 17:29N 35°54' E 014°48'0 0.0
2017-Jun-22 16:23N 35°54' E 014°48'0 0.0
2017-Jun-22 15:59N 35°54' E 014°48'0 0.0
2017-Jun-22 15:29N 35°54' E 014°48'0 0.0
2017-Jun-22 14:56N 35°54' E 014°48'0 0.0
2017-Jun-22 14:29N 35°54' E 014°48'0 0.0
2017-Jun-22 13:29N 35°54' E 014°48'0 0.0
2017-Jun-22 12:59N 35°54' E 014°48'0 0.0
2017-Jun-22 12:29N 35°54' E 014°48'0 0.1
2017-Jun-22 11:56N 35°54' E 014°48'0 0.1
2017-Jun-22 11:27N 35°54' E 014°48'3 5.9
2017-Jun-22 11:00N 35°52' E 014°47'4 7.9
2017-Jun-22 10:31N 35°50' E 014°42'4 7.6
2017-Jun-22 10:00N 35°50' E 014°38'1 2.7
2017-Jun-22 09:30N 35°51' E 014°36'0 0.0
2017-Jun-22 09:00N 35°51' E 014°36'0 0.0
2017-Jun-22 08:30N 35°51' E 014°36'0 0.0
2017-Jun-22 07:57N 35°51' E 014°36'0 0.0
2017-Jun-22 07:30N 35°51' E 014°36'0 0.0
2017-Jun-22 07:00N 35°51' E 014°36'0 0.0
2017-Jun-22 06:30N 35°51' E 014°36'0 0.0
2017-Jun-22 06:00N 35°51' E 014°36'0 0.0
2017-Jun-22 05:30N 35°51' E 014°36'0 0.0
2017-Jun-22 05:00N 35°51' E 014°36'0 0.0
2017-Jun-22 04:30N 35°51' E 014°36'0 0.0
2017-Jun-22 04:00N 35°51' E 014°36'0 0.0
2017-Jun-22 03:30N 35°51' E 014°36'0 0.0
2017-Jun-22 03:00N 35°51' E 014°36'0 0.0
2017-Jun-22 02:30N 35°51' E 014°36'0 0.0
2017-Jun-22 01:54N 35°51' E 014°36'0 0.1
2017-Jun-22 01:27N 35°51' E 014°36'0 0.0
2017-Jun-22 00:51N 35°51' E 014°36'0 0.0
2017-Jun-22 00:30N 35°51' E 014°36'0 0.0
2017-Jun-22 00:00N 35°51' E 014°36'0 0.0
2017-Jun-21 23:30N 35°51' E 014°36'0 0.0
2017-Jun-21 21:45N 35°51' E 014°36'0 0.1
2017-Jun-21 21:30N 35°51' E 014°36'0 0.0
2017-Jun-21 19:54N 35°51' E 014°36'0 0.0
2017-Jun-21 19:30N 35°51' E 014°36'0 0.0
2017-Jun-21 18:09N 35°51' E 014°36'0 0.0
2017-Jun-21 17:48N 35°51' E 014°36'0 0.0
2017-Jun-21 17:30N 35°51' E 014°36'0 0.0
2017-Jun-21 17:00N 35°51' E 014°36'0 0.0
2017-Jun-21 16:30N 35°51' E 014°36'0 0.0
2017-Jun-21 15:42N 35°51' E 014°36'0 0.0
2017-Jun-21 15:30N 35°51' E 014°36'0 0.0
2017-Jun-21 14:57N 35°51' E 014°36'0 0.0
2017-Jun-21 14:27N 35°51' E 014°36'4 4.2
2017-Jun-21 13:30N 35°50' E 014°41'4 7.2
2017-Jun-21 13:00N 35°52' E 014°45'2 3.7
2017-Jun-21 12:28N 35°53' E 014°47'0 0.0
2017-Jun-21 11:49N 35°53' E 014°47'0 0.0
2017-Jun-21 11:28N 35°53' E 014°47'0 0.0
2017-Jun-21 10:58N 35°53' E 014°47'0 0.0
2017-Jun-21 10:28N 35°53' E 014°47'0 0.0
2017-Jun-21 09:58N 35°53' E 014°47'0 0.0
2017-Jun-21 09:13N 35°53' E 014°47'0 0.0
2017-Jun-21 08:55N 35°53' E 014°47'0 0.0
2017-Jun-21 08:13N 35°53' E 014°47'0 0.0
2017-Jun-21 07:40N 35°53' E 014°47'0 0.2
2017-Jun-21 06:59N 35°53' E 014°47'1 1.3
2017-Jun-21 06:17N 35°53' E 014°46'0 0.1
2017-Jun-21 05:56N 35°53' E 014°46'0 0.3
2017-Jun-21 05:29N 35°53' E 014°46'0 0.1
2017-Jun-21 04:44N 35°53' E 014°45'0 0.0
2017-Jun-21 04:29N 35°53' E 014°45'0 0.0
2017-Jun-21 03:56N 35°53' E 014°45'0 0.1
2017-Jun-21 02:59N 35°53' E 014°45'0 0.1
2017-Jun-21 02:20N 35°53' E 014°45'0 0.0
2017-Jun-21 01:50N 35°53' E 014°45'0 0.0
2017-Jun-21 01:23N 35°53' E 014°45'0 0.0
2017-Jun-21 00:59N 35°53' E 014°45'0 0.0
2017-Jun-21 00:29N 35°53' E 014°45'0 0.0
2017-Jun-20 23:56N 35°53' E 014°45'0 0.0
2017-Jun-20 23:29N 35°53' E 014°45'0 0.0
2017-Jun-20 22:56N 35°53' E 014°46'0 0.5
2017-Jun-20 22:30N 35°53' E 014°45'3 7.0
2017-Jun-20 22:00N 35°54' E 014°41'4 7.8
2017-Jun-20 21:30N 35°54' E 014°37'4 7.6
2017-Jun-20 21:00N 35°54' E 014°32'0 0.0
2017-Jun-20 04:41N 35°54' E 014°31'1 7.2
2017-Jun-20 04:30N 35°54' E 014°33'3 6.2
2017-Jun-20 04:00N 35°52' E 014°36'1 2.5
2017-Jun-20 03:30N 35°50' E 014°36'0 0.0
2017-Jun-20 02:57N 35°50' E 014°36'0 0.0
2017-Jun-20 02:27N 35°50' E 014°36'0 0.0
2017-Jun-20 02:00N 35°50' E 014°36'0 0.0
2017-Jun-20 00:54N 35°50' E 014°36'0 0.1
2017-Jun-20 00:30N 35°50' E 014°36'2 4.9
2017-Jun-20 00:00N 35°50' E 014°39'4 7.9
2017-Jun-19 23:30N 35°52' E 014°43'2 3.1
2017-Jun-19 23:00N 35°53' E 014°45'0 0.0
2017-Jun-19 22:30N 35°53' E 014°45'0 0.0
2017-Jun-19 22:00N 35°53' E 014°45'0 0.0
2017-Jun-19 21:30N 35°53' E 014°45'0 0.0
2017-Jun-19 20:51N 35°53' E 014°45'0 0.3
2017-Jun-19 19:44N 35°52' E 014°45'0 0.0
2017-Jun-19 18:59N 35°52' E 014°45'0 0.0
2017-Jun-19 17:41N 35°52' E 014°45'0 0.0
2017-Jun-19 17:29N 35°52' E 014°45'0 0.1
2017-Jun-19 16:59N 35°52' E 014°45'0 0.1
2017-Jun-19 16:29N 35°52' E 014°45'0 0.1
2017-Jun-19 15:50N 35°52' E 014°44'0 0.0
2017-Jun-19 12:47N 35°52' E 014°44'0 0.0
2017-Jun-19 12:29N 35°52' E 014°44'0 0.0
2017-Jun-19 11:53N 35°52' E 014°44'0 0.0
2017-Jun-19 11:26N 35°52' E 014°44'0 0.5
2017-Jun-19 11:00N 35°52' E 014°45'3 0.4
2017-Jun-19 05:19N 35°53' E 014°48'0 0.0
2017-Jun-19 04:34N 35°53' E 014°48'2 3.1
2017-Jun-19 03:54N 35°52' E 014°45'1 0.9
2017-Jun-19 03:12N 35°52' E 014°45'0 0.0
2017-Jun-19 03:00N 35°52' E 014°45'0 0.0
2017-Jun-19 02:30N 35°52' E 014°45'0 0.0
2017-Jun-19 02:00N 35°52' E 014°45'1 0.9
2017-Jun-19 01:25N 35°53' E 014°45'1 0.4
2017-Jun-18 21:20N 35°54' E 014°45'0 0.0
2017-Jun-18 20:59N 35°54' E 014°45'0 0.1
2017-Jun-18 20:30N 35°54' E 014°45'0 0.0
2017-Jun-18 19:58N 35°55' E 014°45'0 0.0
2017-Jun-18 19:29N 35°54' E 014°45'0 0.0
2017-Jun-18 19:00N 35°55' E 014°45'0 0.0
2017-Jun-18 18:30N 35°55' E 014°45'0 0.0
2017-Jun-18 18:00N 35°54' E 014°45'2 4.3
2017-Jun-18 17:30N 35°55' E 014°42'3 6.7
2017-Jun-18 17:00N 35°55' E 014°38'3 6.4
2017-Jun-18 16:30N 35°54' E 014°34'1 1.6
2017-Jun-18 16:00N 35°53' E 014°35'3 6.9
2017-Jun-18 15:30N 35°50' E 014°36'1 1.7
2017-Jun-18 14:37N 35°49' E 014°35'0 0.0
2017-Jun-18 13:30N 35°49' E 014°35'0 0.0
2017-Jun-18 12:23N 35°49' E 014°35'0 0.0
2017-Jun-18 09:41N 35°49' E 014°35'0 0.0
2017-Jun-18 09:28N 35°49' E 014°35'0 0.0
2017-Jun-18 08:10N 35°49' E 014°35'0 0.0
2017-Jun-18 07:46N 35°49' E 014°35'0 0.0
2017-Jun-18 07:22N 35°49' E 014°35'0 0.0
2017-Jun-18 06:49N 35°49' E 014°35'0 0.0
2017-Jun-18 02:08N 35°49' E 014°35'0 0.1
2017-Jun-18 01:51N 35°49' E 014°35'0 0.0
2017-Jun-18 00:51N 35°49' E 014°35'0 0.0
2017-Jun-18 00:29N 35°49' E 014°35'0 0.0
2017-Jun-17 23:46N 35°49' E 014°35'0 0.0
2017-Jun-17 23:30N 35°49' E 014°35'0 0.0
2017-Jun-17 22:50N 35°49' E 014°35'0 0.0
2017-Jun-17 22:21N 35°49' E 014°35'0 0.1
2017-Jun-17 22:00N 35°49' E 014°35'0 0.1
2017-Jun-17 21:29N 35°49' E 014°35'0 0.1
2017-Jun-17 21:00N 35°49' E 014°35'0 0.0
2017-Jun-17 20:30N 35°49' E 014°35'0 0.0
2017-Jun-17 20:00N 35°49' E 014°35'0 0.0
2017-Jun-17 19:30N 35°49' E 014°35'0 0.0
2017-Jun-17 19:00N 35°49' E 014°35'0 0.1
2017-Jun-17 18:30N 35°49' E 014°35'0 0.1
2017-Jun-17 18:00N 35°49' E 014°35'0 0.0
2017-Jun-17 17:30N 35°49' E 014°35'0 0.1
2017-Jun-17 17:00N 35°49' E 014°35'2 3.0
2017-Jun-17 16:30N 35°49' E 014°33'0 0.2
2017-Jun-17 14:31N 35°49' E 014°33'0 0.0
2017-Jun-17 14:30N 35°49' E 014°33'0 0.0
2017-Jun-17 13:30N 35°49' E 014°33'0 0.0
2017-Jun-17 13:00N 35°49' E 014°33'0 0.0
2017-Jun-17 12:30N 35°49' E 014°33'0 0.0
2017-Jun-17 12:00N 35°49' E 014°33'0 0.0
2017-Jun-17 11:30N 35°49' E 014°33'0 0.0
2017-Jun-17 10:53N 35°49' E 014°33'0 0.0
2017-Jun-17 10:15N 35°49' E 014°33'0 0.0
2017-Jun-17 10:00N 35°49' E 014°33'0 0.0
2017-Jun-17 09:30N 35°49' E 014°33'0 0.0
2017-Jun-17 09:00N 35°49' E 014°33'0 0.6
2017-Jun-17 08:30N 35°49' E 014°33'2 2.9
2017-Jun-17 07:58N 35°49' E 014°35'0 0.4
2017-Jun-17 07:30N 35°49' E 014°35'0 0.0
2017-Jun-17 07:00N 35°49' E 014°35'0 0.0
2017-Jun-17 06:30N 35°49' E 014°35'0 0.0
2017-Jun-17 05:52N 35°49' E 014°35'0 0.0
2017-Jun-17 05:30N 35°49' E 014°35'0 0.0
2017-Jun-17 04:55N 35°49' E 014°35'0 0.0
2017-Jun-17 04:30N 35°49' E 014°35'0 0.0
2017-Jun-17 04:00N 35°49' E 014°35'0 0.0
2017-Jun-17 03:30N 35°49' E 014°35'0 0.0
2017-Jun-17 03:00N 35°49' E 014°35'0 0.0
2017-Jun-17 02:29N 35°49' E 014°35'0 0.0
2017-Jun-17 02:00N 35°49' E 014°35'0 0.0
2017-Jun-17 01:29N 35°49' E 014°35'0 0.0
2017-Jun-17 01:00N 35°49' E 014°35'0 0.0
2017-Jun-17 00:29N 35°49' E 014°35'0 0.0
2017-Jun-17 00:00N 35°49' E 014°35'0 0.0
2017-Jun-16 23:30N 35°49' E 014°35'0 0.0
2017-Jun-16 23:00N 35°49' E 014°35'0 0.0
2017-Jun-16 22:26N 35°49' E 014°35'0 0.0
2017-Jun-16 21:59N 35°49' E 014°35'0 0.0
2017-Jun-16 21:30N 35°49' E 014°35'0 0.0
2017-Jun-16 21:00N 35°49' E 014°35'0 0.0
2017-Jun-16 20:30N 35°49' E 014°35'0 0.0
2017-Jun-16 20:00N 35°49' E 014°35'0 0.1
2017-Jun-16 19:30N 35°49' E 014°35'0 0.1
2017-Jun-16 19:00N 35°49' E 014°35'0 0.1
2017-Jun-16 18:30N 35°49' E 014°35'0 0.0
2017-Jun-16 18:00N 35°49' E 014°35'0 0.1
2017-Jun-16 17:30N 35°49' E 014°35'0 0.2
2017-Jun-16 17:00N 35°49' E 014°35'0 0.1
2017-Jun-16 16:30N 35°49' E 014°35'0 0.1
2017-Jun-16 16:00N 35°49' E 014°35'0 0.0
2017-Jun-16 15:30N 35°49' E 014°35'0 0.1
2017-Jun-16 15:00N 35°49' E 014°35'0 0.0
2017-Jun-16 14:00N 35°49' E 014°35'1 3.0
2017-Jun-16 13:30N 35°49' E 014°37'4 8.0
2017-Jun-16 13:00N 35°50' E 014°41'4 8.3
2017-Jun-16 12:30N 35°53' E 014°45'1 1.1
2017-Jun-16 12:00N 35°53' E 014°46'0 0.0
2017-Jun-16 11:30N 35°53' E 014°46'0 0.0
2017-Jun-16 11:00N 35°53' E 014°46'0 0.0
2017-Jun-16 10:30N 35°53' E 014°46'0 0.0
2017-Jun-16 10:00N 35°53' E 014°46'0 0.1
2017-Jun-16 09:30N 35°53' E 014°46'0 0.1
2017-Jun-16 09:00N 35°54' E 014°46'2 3.4
2017-Jun-16 08:30N 35°52' E 014°45'4 7.4
2017-Jun-16 08:00N 35°50' E 014°41'4 7.9
2017-Jun-16 07:30N 35°49' E 014°36'1 1.7
2017-Jun-16 07:00N 35°49' E 014°35'0 0.1
2017-Jun-16 06:30N 35°49' E 014°35'0 0.0
2017-Jun-16 06:00N 35°49' E 014°35'0 0.0
2017-Jun-16 05:30N 35°49' E 014°35'0 0.0
2017-Jun-16 05:00N 35°49' E 014°35'0 0.0
2017-Jun-16 04:30N 35°49' E 014°35'0 0.0
2017-Jun-16 03:55N 35°49' E 014°35'0 0.0
2017-Jun-16 03:30N 35°49' E 014°35'0 0.0
2017-Jun-16 03:00N 35°49' E 014°35'0 0.0
2017-Jun-16 02:30N 35°49' E 014°35'0 0.0
2017-Jun-16 02:00N 35°49' E 014°35'0 0.0
2017-Jun-16 01:30N 35°49' E 014°35'0 0.0
2017-Jun-16 01:00N 35°49' E 014°35'0 0.0
2017-Jun-16 00:11N 35°49' E 014°35'0 0.0
2017-Jun-15 23:45N 35°49' E 014°35'0 0.0
2017-Jun-15 23:17N 35°49' E 014°35'0 0.0
2017-Jun-15 23:00N 35°49' E 014°35'0 0.0
2017-Jun-15 22:22N 35°49' E 014°35'0 0.0
2017-Jun-15 21:58N 35°49' E 014°35'0 0.0
2017-Jun-15 21:17N 35°49' E 014°35'0 0.0
2017-Jun-15 21:00N 35°49' E 014°35'0 0.0
2017-Jun-15 20:30N 35°49' E 014°35'0 0.0
2017-Jun-15 20:00N 35°49' E 014°35'0 0.0
2017-Jun-15 19:26N 35°49' E 014°35'0 0.0
2017-Jun-15 19:00N 35°49' E 014°35'0 0.0
2017-Jun-15 18:30N 35°49' E 014°35'0 0.0
2017-Jun-15 18:00N 35°49' E 014°35'0 0.0
2017-Jun-15 17:09N 35°49' E 014°35'0 0.0
2017-Jun-15 16:54N 35°49' E 014°35'0 0.0
2017-Jun-15 16:30N 35°49' E 014°35'0 0.0
2017-Jun-15 16:00N 35°49' E 014°35'0 0.0
2017-Jun-15 15:26N 35°49' E 014°35'0 0.0
2017-Jun-15 14:54N 35°49' E 014°35'0 0.1
2017-Jun-15 14:30N 35°49' E 014°35'0 0.0
2017-Jun-15 13:12N 35°49' E 014°35'0 0.1
2017-Jun-15 12:47N 35°49' E 014°35'0 0.1
2017-Jun-15 12:28N 35°49' E 014°35'0 0.0
2017-Jun-15 12:00N 35°49' E 014°35'0 0.1
2017-Jun-15 11:30N 35°49' E 014°35'1 2.8
2017-Jun-15 11:00N 35°49' E 014°33'1 0.7
2017-Jun-15 09:31N 35°49' E 014°32'0 0.2
2017-Jun-15 09:29N 35°49' E 014°32'0 0.0
2017-Jun-15 08:22N 35°49' E 014°32'0 0.0
2017-Jun-15 07:58N 35°49' E 014°32'0 0.0
2017-Jun-15 07:30N 35°49' E 014°32'0 0.0
2017-Jun-15 07:00N 35°49' E 014°32'0 0.0
2017-Jun-15 06:18N 35°49' E 014°32'0 0.0
2017-Jun-15 06:00N 35°49' E 014°32'0 0.0
2017-Jun-15 04:40N 35°49' E 014°32'0 0.0
2017-Jun-15 04:26N 35°49' E 014°32'0 0.0
2017-Jun-15 03:51N 35°49' E 014°32'0 0.0
2017-Jun-15 03:30N 35°49' E 014°32'  
Track history (hours):
 
Tides and Currents Weather Stations Pressure Air Temp Water Temp Dewpoint Dewpoint Depression Visibility Wind Speed Wind Dir Waves Ship Positions

M/T Vemaoil Xi

Last reported at 2017-Jun-25 03:24 UTC. Time now 2017-Jun-25 03:44 UTC.
Position N 35°49' E 014°35'.

Length 105 m; draft 4.8 m.

Type: Tanker. MMSI: 215631000.

Date/timePositionNaut miles runAvg speedWind from/ knotsBaromVisibWave heightAir tempDewpointWater temp
2017-Jun-25 03:24N 35°49' E 014°35'0 0.0
2017-Jun-25 03:00N 35°49' E 014°35'0 0.0
2017-Jun-25 02:30N 35°49' E 014°35'0 0.0
2017-Jun-25 02:00N 35°49' E 014°35'0 0.0
2017-Jun-25 01:30N 35°49' E 014°35'0 0.0
2017-Jun-25 01:00N 35°49' E 014°35'0 0.0
2017-Jun-25 00:30N 35°49' E 014°35'0 0.0
2017-Jun-25 00:00N 35°49' E 014°35'0 0.0
2017-Jun-24 23:30N 35°49' E 014°35'0 0.0
2017-Jun-24 23:00N 35°49' E 014°35'0 0.0
2017-Jun-24 22:30N 35°49' E 014°35'0 0.0
2017-Jun-24 22:00N 35°49' E 014°35'0 0.0
2017-Jun-24 21:30N 35°49' E 014°35'0 0.0
2017-Jun-24 21:00N 35°49' E 014°35'0 0.0
2017-Jun-24 20:30N 35°49' E 014°35'0 0.0
2017-Jun-24 20:00N 35°49' E 014°35'0 0.0
2017-Jun-24 19:30N 35°49' E 014°35'0 0.0
2017-Jun-24 18:51N 35°49' E 014°35'0 0.0
2017-Jun-24 18:30N 35°49' E 014°35'0 0.0
2017-Jun-24 18:00N 35°49' E 014°35'0 0.0
2017-Jun-24 17:27N 35°49' E 014°35'0 0.0
2017-Jun-24 17:00N 35°49' E 014°35'0 0.0
2017-Jun-24 16:30N 35°49' E 014°35'0 0.0
2017-Jun-24 16:00N 35°49' E 014°35'0 0.0
2017-Jun-24 15:27N 35°49' E 014°35'0 0.0
2017-Jun-24 14:48N 35°49' E 014°35'0 0.0
2017-Jun-24 14:00N 35°49' E 014°35'0 0.0
2017-Jun-24 13:30N 35°49' E 014°35'0 0.0
2017-Jun-24 12:54N 35°49' E 014°35'0 0.0
2017-Jun-24 12:24N 35°49' E 014°35'0 0.0
2017-Jun-24 12:00N 35°49' E 014°35'0 0.0
2017-Jun-24 11:30N 35°49' E 014°35'0 0.1
2017-Jun-24 11:00N 35°49' E 014°35'0 0.0
2017-Jun-24 10:21N 35°49' E 014°35'0 0.0
2017-Jun-24 10:00N 35°49' E 014°35'0 0.0
2017-Jun-24 09:30N 35°49' E 014°35'0 0.0
2017-Jun-24 09:00N 35°49' E 014°35'0 0.0
2017-Jun-24 08:30N 35°49' E 014°35'3 5.5
2017-Jun-24 08:01N 35°49' E 014°38'4 7.9
2017-Jun-24 07:30N 35°51' E 014°43'4 7.4
2017-Jun-24 07:01N 35°53' E 014°46'0 0.1
2017-Jun-24 06:29N 35°53' E 014°46'0 0.0
2017-Jun-24 05:59N 35°53' E 014°46'0 0.0
2017-Jun-24 05:29N 35°53' E 014°46'0 0.0
2017-Jun-24 04:59N 35°53' E 014°46'0 0.0
2017-Jun-24 04:26N 35°53' E 014°46'0 0.0
2017-Jun-24 03:59N 35°53' E 014°46'0 0.0
2017-Jun-24 03:29N 35°53' E 014°46'0 0.0
2017-Jun-24 02:59N 35°53' E 014°46'0 0.0
2017-Jun-24 02:29N 35°53' E 014°46'0 0.5
2017-Jun-24 02:00N 35°53' E 014°46'3 5.2
2017-Jun-24 01:30N 35°51' E 014°44'4 7.1
2017-Jun-24 01:00N 35°50' E 014°40'3 5.8
2017-Jun-24 00:25N 35°51' E 014°36'0 0.1
2017-Jun-23 23:58N 35°51' E 014°36'0 0.0
2017-Jun-23 23:28N 35°51' E 014°36'0 0.0
2017-Jun-23 22:55N 35°51' E 014°36'0 0.0
2017-Jun-23 22:28N 35°51' E 014°36'0 0.0
2017-Jun-23 21:58N 35°51' E 014°36'0 0.0
2017-Jun-23 21:28N 35°51' E 014°36'0 0.0
2017-Jun-23 20:58N 35°51' E 014°36'0 0.1
2017-Jun-23 20:28N 35°51' E 014°36'0 0.0
2017-Jun-23 19:13N 35°51' E 014°36'0 0.0
2017-Jun-23 18:55N 35°51' E 014°36'0 0.0
2017-Jun-23 18:28N 35°51' E 014°36'0 0.1
2017-Jun-23 17:58N 35°51' E 014°36'0 0.1
2017-Jun-23 17:28N 35°51' E 014°36'0 0.1
2017-Jun-23 16:58N 35°51' E 014°36'0 0.0
2017-Jun-23 16:28N 35°51' E 014°36'0 0.0
2017-Jun-23 15:58N 35°51' E 014°36'0 0.0
2017-Jun-23 15:28N 35°51' E 014°36'0 0.0
2017-Jun-23 14:58N 35°51' E 014°36'0 0.0
2017-Jun-23 14:28N 35°51' E 014°36'0 0.0
2017-Jun-23 13:58N 35°51' E 014°36'0 0.0
2017-Jun-23 13:25N 35°51' E 014°36'0 0.1
2017-Jun-23 12:58N 35°51' E 014°36'0 0.0
2017-Jun-23 12:28N 35°51' E 014°36'0 0.1
2017-Jun-23 11:58N 35°51' E 014°36'0 0.0
2017-Jun-23 11:28N 35°51' E 014°36'0 0.0
2017-Jun-23 10:58N 35°51' E 014°36'0 0.5
2017-Jun-23 10:25N 35°50' E 014°36'0 0.0
2017-Jun-23 09:58N 35°50' E 014°36'0 0.0
2017-Jun-23 09:28N 35°50' E 014°36'0 0.0
2017-Jun-23 08:55N 35°50' E 014°36'0 0.0
2017-Jun-23 08:28N 35°50' E 014°36'0 0.0
2017-Jun-23 07:58N 35°50' E 014°36'0 0.0
2017-Jun-23 07:25N 35°50' E 014°36'0 0.0
2017-Jun-23 06:55N 35°50' E 014°36'0 0.0
2017-Jun-23 06:25N 35°50' E 014°36'0 0.0
2017-Jun-23 05:58N 35°50' E 014°36'0 0.1
2017-Jun-23 05:28N 35°50' E 014°36'0 0.0
2017-Jun-23 04:58N 35°50' E 014°36'0 0.1
2017-Jun-23 04:28N 35°50' E 014°36'0 0.1
2017-Jun-23 03:52N 35°50' E 014°36'0 0.0
2017-Jun-23 03:28N 35°50' E 014°36'0 0.0
2017-Jun-23 02:58N 35°50' E 014°36'0 0.0
2017-Jun-23 02:28N 35°50' E 014°36'0 0.0
2017-Jun-23 01:55N 35°50' E 014°36'0 0.0
2017-Jun-23 01:28N 35°50' E 014°36'0 0.0
2017-Jun-23 00:52N 35°50' E 014°36'0 0.1
2017-Jun-23 00:25N 35°50' E 014°36'3 6.5
2017-Jun-23 00:00N 35°50' E 014°39'4 7.5
2017-Jun-22 23:30N 35°51' E 014°44'4 7.4
2017-Jun-22 23:00N 35°53' E 014°47'1 2.8
2017-Jun-22 22:29N 35°54' E 014°48'0 0.1
2017-Jun-22 21:59N 35°54' E 014°48'0 0.1
2017-Jun-22 21:29N 35°54' E 014°48'0 0.1
2017-Jun-22 20:59N 35°54' E 014°48'0 0.0
2017-Jun-22 20:29N 35°54' E 014°48'0 0.0
2017-Jun-22 19:59N 35°54' E 014°48'0 0.0
2017-Jun-22 19:29N 35°54' E 014°48'0 0.0
2017-Jun-22 18:59N 35°54' E 014°48'0 0.0
2017-Jun-22 18:29N 35°54' E 014°48'0 0.0
2017-Jun-22 17:59N 35°54' E 014°48'0 0.0
2017-Jun-22 17:29N 35°54' E 014°48'0 0.0
2017-Jun-22 16:23N 35°54' E 014°48'0 0.0
2017-Jun-22 15:59N 35°54' E 014°48'0 0.0
2017-Jun-22 15:29N 35°54' E 014°48'0 0.0
2017-Jun-22 14:56N 35°54' E 014°48'0 0.0
2017-Jun-22 14:29N 35°54' E 014°48'0 0.0
2017-Jun-22 13:29N 35°54' E 014°48'0 0.0
2017-Jun-22 12:59N 35°54' E 014°48'0 0.0
2017-Jun-22 12:29N 35°54' E 014°48'0 0.1
2017-Jun-22 11:56N 35°54' E 014°48'0 0.1
2017-Jun-22 11:27N 35°54' E 014°48'3 5.9
2017-Jun-22 11:00N 35°52' E 014°47'4 7.9
2017-Jun-22 10:31N 35°50' E 014°42'4 7.6
2017-Jun-22 10:00N 35°50' E 014°38'1 2.7
2017-Jun-22 09:30N 35°51' E 014°36'0 0.0
2017-Jun-22 09:00N 35°51' E 014°36'0 0.0
2017-Jun-22 08:30N 35°51' E 014°36'0 0.0
2017-Jun-22 07:57N 35°51' E 014°36'0 0.0
2017-Jun-22 07:30N 35°51' E 014°36'0 0.0
2017-Jun-22 07:00N 35°51' E 014°36'0 0.0
2017-Jun-22 06:30N 35°51' E 014°36'0 0.0
2017-Jun-22 06:00N 35°51' E 014°36'0 0.0
2017-Jun-22 05:30N 35°51' E 014°36'0 0.0
2017-Jun-22 05:00N 35°51' E 014°36'0 0.0
2017-Jun-22 04:30N 35°51' E 014°36'0 0.0
2017-Jun-22 04:00N 35°51' E 014°36'0 0.0
2017-Jun-22 03:30N 35°51' E 014°36'0 0.0
2017-Jun-22 03:00N 35°51' E 014°36'0 0.0
2017-Jun-22 02:30N 35°51' E 014°36'0 0.0
2017-Jun-22 01:54N 35°51' E 014°36'0 0.1
2017-Jun-22 01:27N 35°51' E 014°36'0 0.0
2017-Jun-22 00:51N 35°51' E 014°36'0 0.0
2017-Jun-22 00:30N 35°51' E 014°36'0 0.0
2017-Jun-22 00:00N 35°51' E 014°36'0 0.0
2017-Jun-21 23:30N 35°51' E 014°36'0 0.0
2017-Jun-21 21:45N 35°51' E 014°36'0 0.1
2017-Jun-21 21:30N 35°51' E 014°36'0 0.0
2017-Jun-21 19:54N 35°51' E 014°36'0 0.0
2017-Jun-21 19:30N 35°51' E 014°36'0 0.0
2017-Jun-21 18:09N 35°51' E 014°36'0 0.0
2017-Jun-21 17:48N 35°51' E 014°36'0 0.0
2017-Jun-21 17:30N 35°51' E 014°36'0 0.0
2017-Jun-21 17:00N 35°51' E 014°36'0 0.0
2017-Jun-21 16:30N 35°51' E 014°36'0 0.0
2017-Jun-21 15:42N 35°51' E 014°36'0 0.0
2017-Jun-21 15:30N 35°51' E 014°36'0 0.0
2017-Jun-21 14:57N 35°51' E 014°36'0 0.0
2017-Jun-21 14:27N 35°51' E 014°36'4 4.2
2017-Jun-21 13:30N 35°50' E 014°41'4 7.2
2017-Jun-21 13:00N 35°52' E 014°45'2 3.7
2017-Jun-21 12:28N 35°53' E 014°47'0 0.0
2017-Jun-21 11:49N 35°53' E 014°47'0 0.0
2017-Jun-21 11:28N 35°53' E 014°47'0 0.0
2017-Jun-21 10:58N 35°53' E 014°47'0 0.0
2017-Jun-21 10:28N 35°53' E 014°47'0 0.0
2017-Jun-21 09:58N 35°53' E 014°47'0 0.0
2017-Jun-21 09:13N 35°53' E 014°47'0 0.0
2017-Jun-21 08:55N 35°53' E 014°47'0 0.0
2017-Jun-21 08:13N 35°53' E 014°47'0 0.0
2017-Jun-21 07:40N 35°53' E 014°47'0 0.2
2017-Jun-21 06:59N 35°53' E 014°47'1 1.3
2017-Jun-21 06:17N 35°53' E 014°46'0 0.1
2017-Jun-21 05:56N 35°53' E 014°46'0 0.3
2017-Jun-21 05:29N 35°53' E 014°46'0 0.1
2017-Jun-21 04:44N 35°53' E 014°45'0 0.0
2017-Jun-21 04:29N 35°53' E 014°45'0 0.0
2017-Jun-21 03:56N 35°53' E 014°45'0 0.1
2017-Jun-21 02:59N 35°53' E 014°45'0 0.1
2017-Jun-21 02:20N 35°53' E 014°45'0 0.0
2017-Jun-21 01:50N 35°53' E 014°45'0 0.0
2017-Jun-21 01:23N 35°53' E 014°45'0 0.0
2017-Jun-21 00:59N 35°53' E 014°45'0 0.0
2017-Jun-21 00:29N 35°53' E 014°45'0 0.0
2017-Jun-20 23:56N 35°53' E 014°45'0 0.0
2017-Jun-20 23:29N 35°53' E 014°45'0 0.0
2017-Jun-20 22:56N 35°53' E 014°46'0 0.5
2017-Jun-20 22:30N 35°53' E 014°45'3 7.0
2017-Jun-20 22:00N 35°54' E 014°41'4 7.8
2017-Jun-20 21:30N 35°54' E 014°37'4 7.6
2017-Jun-20 21:00N 35°54' E 014°32'0 0.0
2017-Jun-20 04:41N 35°54' E 014°31'1 7.2
2017-Jun-20 04:30N 35°54' E 014°33'3 6.2
2017-Jun-20 04:00N 35°52' E 014°36'1 2.5
2017-Jun-20 03:30N 35°50' E 014°36'0 0.0
2017-Jun-20 02:57N 35°50' E 014°36'0 0.0
2017-Jun-20 02:27N 35°50' E 014°36'0 0.0
2017-Jun-20 02:00N 35°50' E 014°36'0 0.0
2017-Jun-20 00:54N 35°50' E 014°36'0 0.1
2017-Jun-20 00:30N 35°50' E 014°36'2 4.9
2017-Jun-20 00:00N 35°50' E 014°39'4 7.9
2017-Jun-19 23:30N 35°52' E 014°43'2 3.1
2017-Jun-19 23:00N 35°53' E 014°45'0 0.0
2017-Jun-19 22:30N 35°53' E 014°45'0 0.0
2017-Jun-19 22:00N 35°53' E 014°45'0 0.0
2017-Jun-19 21:30N 35°53' E 014°45'0 0.0
2017-Jun-19 20:51N 35°53' E 014°45'0 0.3
2017-Jun-19 19:44N 35°52' E 014°45'0 0.0
2017-Jun-19 18:59N 35°52' E 014°45'0 0.0
2017-Jun-19 17:41N 35°52' E 014°45'0 0.0
2017-Jun-19 17:29N 35°52' E 014°45'0 0.1
2017-Jun-19 16:59N 35°52' E 014°45'0 0.1
2017-Jun-19 16:29N 35°52' E 014°45'0 0.1
2017-Jun-19 15:50N 35°52' E 014°44'0 0.0
2017-Jun-19 12:47N 35°52' E 014°44'0 0.0
2017-Jun-19 12:29N 35°52' E 014°44'0 0.0
2017-Jun-19 11:53N 35°52' E 014°44'0 0.0
2017-Jun-19 11:26N 35°52' E 014°44'0 0.5
2017-Jun-19 11:00N 35°52' E 014°45'3 0.4
2017-Jun-19 05:19N 35°53' E 014°48'0 0.0
2017-Jun-19 04:34N 35°53' E 014°48'2 3.1
2017-Jun-19 03:54N 35°52' E 014°45'1 0.9
2017-Jun-19 03:12N 35°52' E 014°45'0 0.0
2017-Jun-19 03:00N 35°52' E 014°45'0 0.0
2017-Jun-19 02:30N 35°52' E 014°45'0 0.0
2017-Jun-19 02:00N 35°52' E 014°45'1 0.9
2017-Jun-19 01:25N 35°53' E 014°45'1 0.4
2017-Jun-18 21:20N 35°54' E 014°45'0 0.0
2017-Jun-18 20:59N 35°54' E 014°45'0 0.1
2017-Jun-18 20:30N 35°54' E 014°45'0 0.0
2017-Jun-18 19:58N 35°55' E 014°45'0 0.0
2017-Jun-18 19:29N 35°54' E 014°45'0 0.0
2017-Jun-18 19:00N 35°55' E 014°45'0 0.0
2017-Jun-18 18:30N 35°55' E 014°45'0 0.0
2017-Jun-18 18:00N 35°54' E 014°45'2 4.3
2017-Jun-18 17:30N 35°55' E 014°42'3 6.7
2017-Jun-18 17:00N 35°55' E 014°38'3 6.4
2017-Jun-18 16:30N 35°54' E 014°34'1 1.6
2017-Jun-18 16:00N 35°53' E 014°35'3 6.9
2017-Jun-18 15:30N 35°50' E 014°36'1 1.7
2017-Jun-18 14:37N 35°49' E 014°35'0 0.0
2017-Jun-18 13:30N 35°49' E 014°35'0 0.0
2017-Jun-18 12:23N 35°49' E 014°35'0 0.0
2017-Jun-18 09:41N 35°49' E 014°35'0 0.0
2017-Jun-18 09:28N 35°49' E 014°35'0 0.0
2017-Jun-18 08:10N 35°49' E 014°35'0 0.0
2017-Jun-18 07:46N 35°49' E 014°35'0 0.0
2017-Jun-18 07:22N 35°49' E 014°35'0 0.0
2017-Jun-18 06:49N 35°49' E 014°35'0 0.0
2017-Jun-18 02:08N 35°49' E 014°35'0 0.1
2017-Jun-18 01:51N 35°49' E 014°35'0 0.0
2017-Jun-18 00:51N 35°49' E 014°35'0 0.0
2017-Jun-18 00:29N 35°49' E 014°35'0 0.0
2017-Jun-17 23:46N 35°49' E 014°35'0 0.0
2017-Jun-17 23:30N 35°49' E 014°35'0 0.0
2017-Jun-17 22:50N 35°49' E 014°35'0 0.0
2017-Jun-17 22:21N 35°49' E 014°35'0 0.1
2017-Jun-17 22:00N 35°49' E 014°35'0 0.1
2017-Jun-17 21:29N 35°49' E 014°35'0 0.1
2017-Jun-17 21:00N 35°49' E 014°35'0 0.0
2017-Jun-17 20:30N 35°49' E 014°35'0 0.0
2017-Jun-17 20:00N 35°49' E 014°35'0 0.0
2017-Jun-17 19:30N 35°49' E 014°35'0 0.0
2017-Jun-17 19:00N 35°49' E 014°35'0 0.1
2017-Jun-17 18:30N 35°49' E 014°35'0 0.1
2017-Jun-17 18:00N 35°49' E 014°35'0 0.0
2017-Jun-17 17:30N 35°49' E 014°35'0 0.1
2017-Jun-17 17:00N 35°49' E 014°35'2 3.0
2017-Jun-17 16:30N 35°49' E 014°33'0 0.2
2017-Jun-17 14:31N 35°49' E 014°33'0 0.0
2017-Jun-17 14:30N 35°49' E 014°33'0 0.0
2017-Jun-17 13:30N 35°49' E 014°33'0 0.0
2017-Jun-17 13:00N 35°49' E 014°33'0 0.0
2017-Jun-17 12:30N 35°49' E 014°33'0 0.0
2017-Jun-17 12:00N 35°49' E 014°33'0 0.0
2017-Jun-17 11:30N 35°49' E 014°33'0 0.0
2017-Jun-17 10:53N 35°49' E 014°33'0 0.0
2017-Jun-17 10:15N 35°49' E 014°33'0 0.0
2017-Jun-17 10:00N 35°49' E 014°33'0 0.0
2017-Jun-17 09:30N 35°49' E 014°33'0 0.0
2017-Jun-17 09:00N 35°49' E 014°33'0 0.6
2017-Jun-17 08:30N 35°49' E 014°33'2 2.9
2017-Jun-17 07:58N 35°49' E 014°35'0 0.4
2017-Jun-17 07:30N 35°49' E 014°35'0 0.0
2017-Jun-17 07:00N 35°49' E 014°35'0 0.0
2017-Jun-17 06:30N 35°49' E 014°35'0 0.0
2017-Jun-17 05:52N 35°49' E 014°35'0 0.0
2017-Jun-17 05:30N 35°49' E 014°35'0 0.0
2017-Jun-17 04:55N 35°49' E 014°35'0 0.0
2017-Jun-17 04:30N 35°49' E 014°35'0 0.0
2017-Jun-17 04:00N 35°49' E 014°35'0 0.0
2017-Jun-17 03:30N 35°49' E 014°35'0 0.0
2017-Jun-17 03:00N 35°49' E 014°35'0 0.0
2017-Jun-17 02:29N 35°49' E 014°35'0 0.0
2017-Jun-17 02:00N 35°49' E 014°35'0 0.0
2017-Jun-17 01:29N 35°49' E 014°35'0 0.0
2017-Jun-17 01:00N 35°49' E 014°35'0 0.0
2017-Jun-17 00:29N 35°49' E 014°35'0 0.0
2017-Jun-17 00:00N 35°49' E 014°35'0 0.0
2017-Jun-16 23:30N 35°49' E 014°35'0 0.0
2017-Jun-16 23:00N 35°49' E 014°35'0 0.0
2017-Jun-16 22:26N 35°49' E 014°35'0 0.0
2017-Jun-16 21:59N 35°49' E 014°35'0 0.0
2017-Jun-16 21:30N 35°49' E 014°35'0 0.0
2017-Jun-16 21:00N 35°49' E 014°35'0 0.0
2017-Jun-16 20:30N 35°49' E 014°35'0 0.0
2017-Jun-16 20:00N 35°49' E 014°35'0 0.1
2017-Jun-16 19:30N 35°49' E 014°35'0 0.1
2017-Jun-16 19:00N 35°49' E 014°35'0 0.1
2017-Jun-16 18:30N 35°49' E 014°35'0 0.0
2017-Jun-16 18:00N 35°49' E 014°35'0 0.1
2017-Jun-16 17:30N 35°49' E 014°35'0 0.2
2017-Jun-16 17:00N 35°49' E 014°35'0 0.1
2017-Jun-16 16:30N 35°49' E 014°35'0 0.1
2017-Jun-16 16:00N 35°49' E 014°35'0 0.0
2017-Jun-16 15:30N 35°49' E 014°35'0 0.1
2017-Jun-16 15:00N 35°49' E 014°35'0 0.0
2017-Jun-16 14:00N 35°49' E 014°35'1 3.0
2017-Jun-16 13:30N 35°49' E 014°37'4 8.0
2017-Jun-16 13:00N 35°50' E 014°41'4 8.3
2017-Jun-16 12:30N 35°53' E 014°45'1 1.1
2017-Jun-16 12:00N 35°53' E 014°46'0 0.0
2017-Jun-16 11:30N 35°53' E 014°46'0 0.0
2017-Jun-16 11:00N 35°53' E 014°46'0 0.0
2017-Jun-16 10:30N 35°53' E 014°46'0 0.0
2017-Jun-16 10:00N 35°53' E 014°46'0 0.1
2017-Jun-16 09:30N 35°53' E 014°46'0 0.1
2017-Jun-16 09:00N 35°54' E 014°46'2 3.4
2017-Jun-16 08:30N 35°52' E 014°45'4 7.4
2017-Jun-16 08:00N 35°50' E 014°41'4 7.9
2017-Jun-16 07:30N 35°49' E 014°36'1 1.7
2017-Jun-16 07:00N 35°49' E 014°35'0 0.1
2017-Jun-16 06:30N 35°49' E 014°35'0 0.0
2017-Jun-16 06:00N 35°49' E 014°35'0 0.0
2017-Jun-16 05:30N 35°49' E 014°35'0 0.0
2017-Jun-16 05:00N 35°49' E 014°35'0 0.0
2017-Jun-16 04:30N 35°49' E 014°35'0 0.0
2017-Jun-16 03:55N 35°49' E 014°35'0 0.0
2017-Jun-16 03:30N 35°49' E 014°35'0 0.0
2017-Jun-16 03:00N 35°49' E 014°35'0 0.0
2017-Jun-16 02:30N 35°49' E 014°35'0 0.0
2017-Jun-16 02:00N 35°49' E 014°35'0 0.0
2017-Jun-16 01:30N 35°49' E 014°35'0 0.0
2017-Jun-16 01:00N 35°49' E 014°35'0 0.0
2017-Jun-16 00:11N 35°49' E 014°35'0 0.0
2017-Jun-15 23:45N 35°49' E 014°35'0 0.0
2017-Jun-15 23:17N 35°49' E 014°35'0 0.0
2017-Jun-15 23:00N 35°49' E 014°35'0 0.0
2017-Jun-15 22:22N 35°49' E 014°35'0 0.0
2017-Jun-15 21:58N 35°49' E 014°35'0 0.0
2017-Jun-15 21:17N 35°49' E 014°35'0 0.0
2017-Jun-15 21:00N 35°49' E 014°35'0 0.0
2017-Jun-15 20:30N 35°49' E 014°35'0 0.0
2017-Jun-15 20:00N 35°49' E 014°35'0 0.0
2017-Jun-15 19:26N 35°49' E 014°35'0 0.0
2017-Jun-15 19:00N 35°49' E 014°35'0 0.0
2017-Jun-15 18:30N 35°49' E 014°35'0 0.0
2017-Jun-15 18:00N 35°49' E 014°35'0 0.0
2017-Jun-15 17:09N 35°49' E 014°35'0 0.0
2017-Jun-15 16:54N 35°49' E 014°35'0 0.0
2017-Jun-15 16:30N 35°49' E 014°35'0 0.0
2017-Jun-15 16:00N 35°49' E 014°35'0 0.0
2017-Jun-15 15:26N 35°49' E 014°35'0 0.0
2017-Jun-15 14:54N 35°49' E 014°35'0 0.1
2017-Jun-15 14:30N 35°49' E 014°35'0 0.0
2017-Jun-15 13:12N 35°49' E 014°35'0 0.1
2017-Jun-15 12:47N 35°49' E 014°35'0 0.1
2017-Jun-15 12:28N 35°49' E 014°35'0 0.0
2017-Jun-15 12:00N 35°49' E 014°35'0 0.1
2017-Jun-15 11:30N 35°49' E 014°35'1 2.8
2017-Jun-15 11:00N 35°49' E 014°33'1 0.7
2017-Jun-15 09:31N 35°49' E 014°32'0 0.2
2017-Jun-15 09:29N 35°49' E 014°32'0 0.0
2017-Jun-15 08:22N 35°49' E 014°32'0 0.0
2017-Jun-15 07:58N 35°49' E 014°32'0 0.0
2017-Jun-15 07:30N 35°49' E 014°32'0 0.0
2017-Jun-15 07:00N 35°49' E 014°32'0 0.0
2017-Jun-15 06:18N 35°49' E 014°32'0 0.0
2017-Jun-15 06:00N 35°49' E 014°32'0 0.0
2017-Jun-15 04:40N 35°49' E 014°32'0 0.0
2017-Jun-15 04:26N 35°49' E 014°32'0 0.0
2017-Jun-15 03:51N 35°49' E 014°32'0 0.0
2017-Jun-15 03:30N 35°49' E 014°32'  

Dump ship's entire track history